sensor_id;sensor_type;location;lat;lon;timestamp;pressure;altitude;pressure_sealevel;temperature;humidity
6032;BME280;3044;43.232;27.972;2023-04-06T00:00:49;45132.84;;;-143.84;78.75
6032;BME280;3044;43.232;27.972;2023-04-06T00:03:16;45106.19;;;-143.84;78.45
6032;BME280;3044;43.232;27.972;2023-04-06T00:05:43;45138.56;;;-143.84;78.14
6032;BME280;3044;43.232;27.972;2023-04-06T00:08:12;45134.75;;;-143.84;78.34
6032;BME280;3044;43.232;27.972;2023-04-06T00:10:39;45148.09;;;-143.84;78.40
6032;BME280;3044;43.232;27.972;2023-04-06T00:13:07;45169.03;;;-143.84;77.46
6032;BME280;3044;43.232;27.972;2023-04-06T00:15:34;45205.22;;;-143.84;76.83
6032;BME280;3044;43.232;27.972;2023-04-06T00:18:02;45184.25;;;-143.84;76.69
6032;BME280;3044;43.232;27.972;2023-04-06T00:20:29;45184.25;;;-143.84;76.17
6032;BME280;3044;43.232;27.972;2023-04-06T00:22:57;45176.66;;;-143.84;76.27
6032;BME280;3044;43.232;27.972;2023-04-06T00:25:25;45189.97;;;-143.84;75.29
6032;BME280;3044;43.232;27.972;2023-04-06T00:27:52;45218.53;;;-143.84;75.32
6032;BME280;3044;43.232;27.972;2023-04-06T00:30:20;45197.59;;;-143.84;75.89
6032;BME280;3044;43.232;27.972;2023-04-06T00:32:47;45176.66;;;-143.84;75.70
6032;BME280;3044;43.232;27.972;2023-04-06T00:35:15;45205.22;;;-143.84;76.24
6032;BME280;3044;43.232;27.972;2023-04-06T00:37:42;45159.50;;;-143.84;76.77
6032;BME280;3044;43.232;27.972;2023-04-06T00:40:10;45218.53;;;-143.84;76.62
6032;BME280;3044;43.232;27.972;2023-04-06T00:42:38;45178.56;;;-143.84;76.86
6032;BME280;3044;43.232;27.972;2023-04-06T00:45:06;45176.66;;;-143.84;76.59
6032;BME280;3044;43.232;27.972;2023-04-06T00:47:34;45180.47;;;-143.84;76.84
6032;BME280;3044;43.232;27.972;2023-04-06T00:50:01;45182.38;;;-143.84;77.03
6032;BME280;3044;43.232;27.972;2023-04-06T00:52:28;45199.50;;;-143.84;76.74
6032;BME280;3044;43.232;27.972;2023-04-06T00:54:55;45176.66;;;-143.84;76.35
6032;BME280;3044;43.232;27.972;2023-04-06T00:57:22;45163.31;;;-143.84;76.53
6032;BME280;3044;43.232;27.972;2023-04-06T00:59:52;45199.50;;;-143.84;75.71
6032;BME280;3044;43.232;27.972;2023-04-06T01:02:19;45207.13;;;-143.84;76.02
6032;BME280;3044;43.232;27.972;2023-04-06T01:04:46;45203.31;;;-143.84;75.61
6032;BME280;3044;43.232;27.972;2023-04-06T01:07:13;45193.78;;;-143.84;75.91
6032;BME280;3044;43.232;27.972;2023-04-06T01:09:41;45212.84;;;-143.84;75.89
6032;BME280;3044;43.232;27.972;2023-04-06T01:12:08;45205.22;;;-143.84;75.37
6032;BME280;3044;43.232;27.972;2023-04-06T01:14:35;45226.16;;;-143.84;74.59
6032;BME280;3044;43.232;27.972;2023-04-06T01:17:04;45226.16;;;-143.84;75.04
6032;BME280;3044;43.232;27.972;2023-04-06T01:19:31;45209.03;;;-143.84;74.31
6032;BME280;3044;43.232;27.972;2023-04-06T01:21:59;45195.69;;;-143.84;74.46
6032;BME280;3044;43.232;27.972;2023-04-06T01:24:27;45209.03;;;-143.84;74.68
6032;BME280;3044;43.232;27.972;2023-04-06T01:26:55;45201.41;;;-143.84;74.26
6032;BME280;3044;43.232;27.972;2023-04-06T01:29:23;45229.97;;;-143.84;74.35
6032;BME280;3044;43.232;27.972;2023-04-06T01:31:50;45235.69;;;-143.84;74.12
6032;BME280;3044;43.232;27.972;2023-04-06T01:34:17;45209.03;;;-143.84;74.27
6032;BME280;3044;43.232;27.972;2023-04-06T01:36:44;45222.34;;;-143.84;74.35
6032;BME280;3044;43.232;27.972;2023-04-06T01:39:11;45235.69;;;-143.84;74.44
6032;BME280;3044;43.232;27.972;2023-04-06T01:41:40;45210.94;;;-143.84;74.26
6032;BME280;3044;43.232;27.972;2023-04-06T01:44:07;45228.06;;;-143.84;74.25
6032;BME280;3044;43.232;27.972;2023-04-06T01:46:35;45210.94;;;-143.84;73.86
6032;BME280;3044;43.232;27.972;2023-04-06T01:49:02;45249.00;;;-143.84;73.83
6032;BME280;3044;43.232;27.972;2023-04-06T01:51:29;45228.06;;;-143.84;73.52
6032;BME280;3044;43.232;27.972;2023-04-06T01:53:56;45218.53;;;-143.84;73.56
6032;BME280;3044;43.232;27.972;2023-04-06T01:56:24;45212.84;;;-143.84;73.20
6032;BME280;3044;43.232;27.972;2023-04-06T01:58:53;45220.44;;;-143.84;73.16
6032;BME280;3044;43.232;27.972;2023-04-06T02:01:21;45214.72;;;-143.84;73.13
6032;BME280;3044;43.232;27.972;2023-04-06T02:03:48;45218.53;;;-143.84;73.78
6032;BME280;3044;43.232;27.972;2023-04-06T02:06:17;45229.97;;;-143.84;73.91
6032;BME280;3044;43.232;27.972;2023-04-06T02:08:44;45218.53;;;-143.84;73.53
6032;BME280;3044;43.232;27.972;2023-04-06T02:11:12;45222.34;;;-143.84;74.21
6032;BME280;3044;43.232;27.972;2023-04-06T02:13:39;45214.72;;;-143.84;74.20
6032;BME280;3044;43.232;27.972;2023-04-06T02:16:08;45207.13;;;-143.84;74.34
6032;BME280;3044;43.232;27.972;2023-04-06T02:18:35;45229.97;;;-143.84;74.46
6032;BME280;3044;43.232;27.972;2023-04-06T02:21:02;45207.13;;;-143.84;74.10
6032;BME280;3044;43.232;27.972;2023-04-06T02:23:30;45205.22;;;-143.84;73.92
6032;BME280;3044;43.232;27.972;2023-04-06T02:25:57;45216.63;;;-143.84;73.90
6032;BME280;3044;43.232;27.972;2023-04-06T02:28:24;45210.94;;;-143.84;73.82
6032;BME280;3044;43.232;27.972;2023-04-06T02:30:51;45233.78;;;-143.84;73.63
6032;BME280;3044;43.232;27.972;2023-04-06T02:33:20;45224.25;;;-143.84;73.82
6032;BME280;3044;43.232;27.972;2023-04-06T02:35:47;45214.72;;;-143.84;73.93
6032;BME280;3044;43.232;27.972;2023-04-06T02:38:14;45260.44;;;-143.84;73.66
6032;BME280;3044;43.232;27.972;2023-04-06T02:40:41;45241.41;;;-143.84;73.74
6032;BME280;3044;43.232;27.972;2023-04-06T02:43:08;45226.16;;;-143.84;73.72
6032;BME280;3044;43.232;27.972;2023-04-06T02:45:35;45235.69;;;-143.84;74.02
6032;BME280;3044;43.232;27.972;2023-04-06T02:48:03;45222.34;;;-143.84;74.21
6032;BME280;3044;43.232;27.972;2023-04-06T02:50:32;45228.06;;;-143.84;74.24
6032;BME280;3044;43.232;27.972;2023-04-06T02:52:59;45197.59;;;-143.84;74.67
6032;BME280;3044;43.232;27.972;2023-04-06T02:55:26;45210.94;;;-143.84;74.08
6032;BME280;3044;43.232;27.972;2023-04-06T02:57:53;45180.47;;;-143.84;74.51
6032;BME280;3044;43.232;27.972;2023-04-06T03:00:21;45216.63;;;-143.84;74.61
6032;BME280;3044;43.232;27.972;2023-04-06T03:02:48;45201.41;;;-143.84;74.67
6032;BME280;3044;43.232;27.972;2023-04-06T03:05:15;45209.03;;;-143.84;74.11
6032;BME280;3044;43.232;27.972;2023-04-06T03:07:44;45214.72;;;-143.84;74.33
6032;BME280;3044;43.232;27.972;2023-04-06T03:10:12;45207.13;;;-143.84;74.64
6032;BME280;3044;43.232;27.972;2023-04-06T03:12:39;45229.97;;;-143.84;75.16
6032;BME280;3044;43.232;27.972;2023-04-06T03:15:08;45216.63;;;-143.84;74.90
6032;BME280;3044;43.232;27.972;2023-04-06T03:17:36;45233.78;;;-143.84;74.81
6032;BME280;3044;43.232;27.972;2023-04-06T03:20:03;45203.31;;;-143.84;75.01
6032;BME280;3044;43.232;27.972;2023-04-06T03:22:31;45203.31;;;-143.84;75.42
6032;BME280;3044;43.232;27.972;2023-04-06T03:24:59;45209.03;;;-143.84;75.61
6032;BME280;3044;43.232;27.972;2023-04-06T03:27:26;45144.28;;;-143.84;79.48
6032;BME280;3044;43.232;27.972;2023-04-06T03:29:54;45212.84;;;-143.84;77.83
6032;BME280;3044;43.232;27.972;2023-04-06T03:32:21;45189.97;;;-143.84;76.12
6032;BME280;3044;43.232;27.972;2023-04-06T03:34:48;45245.19;;;-143.84;76.32
6032;BME280;3044;43.232;27.972;2023-04-06T03:37:15;45224.25;;;-143.84;75.98
6032;BME280;3044;43.232;27.972;2023-04-06T03:39:43;45214.72;;;-143.84;75.82
6032;BME280;3044;43.232;27.972;2023-04-06T03:42:11;45199.50;;;-143.84;75.41
6032;BME280;3044;43.232;27.972;2023-04-06T03:44:39;45207.13;;;-143.84;75.67
6032;BME280;3044;43.232;27.972;2023-04-06T03:47:06;45186.16;;;-143.84;75.75
6032;BME280;3044;43.232;27.972;2023-04-06T03:49:33;45174.75;;;-143.84;75.92
6032;BME280;3044;43.232;27.972;2023-04-06T03:52:01;45231.88;;;-143.84;75.65
6032;BME280;3044;43.232;27.972;2023-04-06T03:54:28;45188.06;;;-143.84;75.98
6032;BME280;3044;43.232;27.972;2023-04-06T03:56:55;45205.22;;;-143.84;76.04
6032;BME280;3044;43.232;27.972;2023-04-06T03:59:23;45197.59;;;-143.84;76.04
6032;BME280;3044;43.232;27.972;2023-04-06T04:01:52;45214.72;;;-143.84;75.89
6032;BME280;3044;43.232;27.972;2023-04-06T04:04:19;45205.22;;;-143.84;76.16
6032;BME280;3044;43.232;27.972;2023-04-06T04:06:47;45203.31;;;-143.84;75.83
6032;BME280;3044;43.232;27.972;2023-04-06T04:09:14;45210.94;;;-143.84;76.18
6032;BME280;3044;43.232;27.972;2023-04-06T04:11:41;45214.72;;;-143.84;76.50
6032;BME280;3044;43.232;27.972;2023-04-06T04:14:08;45199.50;;;-143.84;76.54
6032;BME280;3044;43.232;27.972;2023-04-06T04:16:37;45207.13;;;-143.84;76.29
6032;BME280;3044;43.232;27.972;2023-04-06T04:19:05;45184.25;;;-143.84;76.25
6032;BME280;3044;43.232;27.972;2023-04-06T04:21:32;45189.97;;;-143.84;76.33
6032;BME280;3044;43.232;27.972;2023-04-06T04:23:59;45209.03;;;-143.84;76.00
6032;BME280;3044;43.232;27.972;2023-04-06T04:26:26;45226.16;;;-143.84;75.98
6032;BME280;3044;43.232;27.972;2023-04-06T04:28:53;45184.25;;;-143.84;76.44
6032;BME280;3044;43.232;27.972;2023-04-06T04:31:20;45186.16;;;-143.84;76.28
6032;BME280;3044;43.232;27.972;2023-04-06T04:33:49;45180.47;;;-143.84;76.52
6032;BME280;3044;43.232;27.972;2023-04-06T04:36:16;45209.03;;;-143.84;76.65
6032;BME280;3044;43.232;27.972;2023-04-06T04:38:44;45205.22;;;-143.84;76.88
6032;BME280;3044;43.232;27.972;2023-04-06T04:41:11;45224.25;;;-143.84;76.72
6032;BME280;3044;43.232;27.972;2023-04-06T04:43:38;45241.41;;;-143.84;76.09
6032;BME280;3044;43.232;27.972;2023-04-06T04:46:05;45201.41;;;-143.84;75.96
6032;BME280;3044;43.232;27.972;2023-04-06T04:48:32;45191.88;;;-143.84;76.10
6032;BME280;3044;43.232;27.972;2023-04-06T04:51:01;45184.25;;;-143.84;76.08
6032;BME280;3044;43.232;27.972;2023-04-06T04:53:28;45189.97;;;-143.84;75.84
6032;BME280;3044;43.232;27.972;2023-04-06T04:55:55;45210.94;;;-143.84;75.83
6032;BME280;3044;43.232;27.972;2023-04-06T04:58:22;45197.59;;;-143.84;75.85
6032;BME280;3044;43.232;27.972;2023-04-06T05:00:50;45207.13;;;-143.84;75.92
6032;BME280;3044;43.232;27.972;2023-04-06T05:03:21;45229.97;;;-143.84;76.00
6032;BME280;3044;43.232;27.972;2023-04-06T05:05:49;45203.31;;;-143.84;75.48
6032;BME280;3044;43.232;27.972;2023-04-06T05:08:17;45184.25;;;-143.84;74.99
6032;BME280;3044;43.232;27.972;2023-04-06T05:10:44;45222.34;;;-143.84;74.91
6032;BME280;3044;43.232;27.972;2023-04-06T05:13:12;45197.59;;;-143.84;74.57
6032;BME280;3044;43.232;27.972;2023-04-06T05:15:39;45216.63;;;-143.84;74.16
6032;BME280;3044;43.232;27.972;2023-04-06T05:18:07;45193.78;;;-143.84;73.67
6032;BME280;3044;43.232;27.972;2023-04-06T05:20:35;45218.53;;;-143.84;73.49
6032;BME280;3044;43.232;27.972;2023-04-06T05:23:02;45231.88;;;-143.84;73.35
6032;BME280;3044;43.232;27.972;2023-04-06T05:25:32;45207.13;;;-143.84;73.10
6032;BME280;3044;43.232;27.972;2023-04-06T05:27:59;45229.97;;;-143.84;73.02
6032;BME280;3044;43.232;27.972;2023-04-06T05:30:26;45201.41;;;-143.84;72.96
6032;BME280;3044;43.232;27.972;2023-04-06T05:32:54;45214.72;;;-143.84;73.16
6032;BME280;3044;43.232;27.972;2023-04-06T05:35:21;45222.34;;;-143.84;72.84
6032;BME280;3044;43.232;27.972;2023-04-06T05:37:48;45224.25;;;-143.84;72.56
6032;BME280;3044;43.232;27.972;2023-04-06T05:40:16;45214.72;;;-143.84;72.13
6032;BME280;3044;43.232;27.972;2023-04-06T05:42:44;45201.41;;;-143.84;71.86
6032;BME280;3044;43.232;27.972;2023-04-06T05:45:12;45235.69;;;-143.84;72.08
6032;BME280;3044;43.232;27.972;2023-04-06T05:47:42;45210.94;;;-143.84;72.40
6032;BME280;3044;43.232;27.972;2023-04-06T05:50:10;45210.94;;;-143.84;72.67
6032;BME280;3044;43.232;27.972;2023-04-06T05:52:38;45235.69;;;-143.84;72.56
6032;BME280;3044;43.232;27.972;2023-04-06T05:55:08;45233.78;;;-143.84;72.39
6032;BME280;3044;43.232;27.972;2023-04-06T05:57:36;45201.41;;;-143.84;72.07
6032;BME280;3044;43.232;27.972;2023-04-06T06:00:06;45229.97;;;-143.84;71.72
6032;BME280;3044;43.232;27.972;2023-04-06T06:02:35;45218.53;;;-143.84;71.75
6032;BME280;3044;43.232;27.972;2023-04-06T06:05:02;45209.03;;;-143.84;70.91
6032;BME280;3044;43.232;27.972;2023-04-06T06:07:30;45214.72;;;-143.84;71.30
6032;BME280;3044;43.232;27.972;2023-04-06T06:09:57;45220.44;;;-143.84;70.82
6032;BME280;3044;43.232;27.972;2023-04-06T06:12:24;45209.03;;;-143.84;70.57
6032;BME280;3044;43.232;27.972;2023-04-06T06:14:51;45241.41;;;-143.84;69.94
6032;BME280;3044;43.232;27.972;2023-04-06T06:17:20;45218.53;;;-143.84;70.14
6032;BME280;3044;43.232;27.972;2023-04-06T06:19:48;45228.06;;;-143.84;69.78
6032;BME280;3044;43.232;27.972;2023-04-06T06:22:15;45226.16;;;-143.84;68.52
6032;BME280;3044;43.232;27.972;2023-04-06T06:24:42;45226.16;;;-143.84;68.44
6032;BME280;3044;43.232;27.972;2023-04-06T06:27:09;45207.13;;;-143.84;68.77
6032;BME280;3044;43.232;27.972;2023-04-06T06:29:37;45210.94;;;-143.84;68.32
6032;BME280;3044;43.232;27.972;2023-04-06T06:32:04;45210.94;;;-143.84;68.72
6032;BME280;3044;43.232;27.972;2023-04-06T06:34:33;45226.16;;;-143.84;69.34
6032;BME280;3044;43.232;27.972;2023-04-06T06:37:00;45195.69;;;-143.84;68.64
6032;BME280;3044;43.232;27.972;2023-04-06T06:39:27;45256.63;;;-143.84;67.90
6032;BME280;3044;43.232;27.972;2023-04-06T06:41:54;45207.13;;;-143.84;68.46
6032;BME280;3044;43.232;27.972;2023-04-06T06:44:22;45205.22;;;-143.84;68.79
6032;BME280;3044;43.232;27.972;2023-04-06T06:46:49;45207.13;;;-143.84;69.90
6032;BME280;3044;43.232;27.972;2023-04-06T06:49:16;45231.88;;;-143.84;69.64
6032;BME280;3044;43.232;27.972;2023-04-06T06:51:45;45237.59;;;-143.84;68.52
6032;BME280;3044;43.232;27.972;2023-04-06T06:54:13;45191.88;;;-143.84;67.90
6032;BME280;3044;43.232;27.972;2023-04-06T06:56:40;45231.88;;;-143.84;68.05
6032;BME280;3044;43.232;27.972;2023-04-06T06:59:07;45233.78;;;-143.84;67.43
6032;BME280;3044;43.232;27.972;2023-04-06T07:01:36;45174.75;;;-143.84;66.72
6032;BME280;3044;43.232;27.972;2023-04-06T07:04:04;45214.72;;;-143.84;66.10
6032;BME280;3044;43.232;27.972;2023-04-06T07:06:31;45209.03;;;-143.84;64.71
6032;BME280;3044;43.232;27.972;2023-04-06T07:08:59;45207.13;;;-143.84;66.58
6032;BME280;3044;43.232;27.972;2023-04-06T07:11:28;45209.03;;;-143.84;65.88
6032;BME280;3044;43.232;27.972;2023-04-06T07:13:55;45209.03;;;-143.84;62.54
6032;BME280;3044;43.232;27.972;2023-04-06T07:16:23;45224.25;;;-143.84;61.89
6032;BME280;3044;43.232;27.972;2023-04-06T07:18:50;45197.59;;;-143.84;61.99
6032;BME280;3044;43.232;27.972;2023-04-06T07:21:17;45195.69;;;-143.84;61.25
6032;BME280;3044;43.232;27.972;2023-04-06T07:23:44;45199.50;;;-143.84;58.31
6032;BME280;3044;43.232;27.972;2023-04-06T07:26:15;45178.56;;;-143.84;57.18
6032;BME280;3044;43.232;27.972;2023-04-06T07:28:42;45209.03;;;-143.84;57.62
6032;BME280;3044;43.232;27.972;2023-04-06T07:31:09;45193.78;;;-143.84;57.42
6032;BME280;3044;43.232;27.972;2023-04-06T07:33:36;45207.13;;;-143.84;57.65
6032;BME280;3044;43.232;27.972;2023-04-06T07:36:04;45172.84;;;-143.84;57.22
6032;BME280;3044;43.232;27.972;2023-04-06T07:38:31;45193.78;;;-143.84;57.48
6032;BME280;3044;43.232;27.972;2023-04-06T07:40:59;45189.97;;;-143.84;56.65
6032;BME280;3044;43.232;27.972;2023-04-06T07:43:30;45193.78;;;-143.84;54.54
6032;BME280;3044;43.232;27.972;2023-04-06T07:45:57;45205.22;;;-143.84;54.25
6032;BME280;3044;43.232;27.972;2023-04-06T07:48:25;45193.78;;;-143.84;54.01
6032;BME280;3044;43.232;27.972;2023-04-06T07:51:00;45165.22;;;-143.84;52.92
6032;BME280;3044;43.232;27.972;2023-04-06T07:53:27;45174.75;;;-143.84;49.82
6032;BME280;3044;43.232;27.972;2023-04-06T07:55:55;45148.09;;;-143.84;49.34
6032;BME280;3044;43.232;27.972;2023-04-06T07:58:22;45210.94;;;-143.84;49.37
6032;BME280;3044;43.232;27.972;2023-04-06T08:00:51;45163.31;;;-143.84;49.53
6032;BME280;3044;43.232;27.972;2023-04-06T08:03:18;45144.28;;;-143.84;47.03
6032;BME280;3044;43.232;27.972;2023-04-06T08:05:50;45174.75;;;-143.84;47.51
6032;BME280;3044;43.232;27.972;2023-04-06T08:08:18;45170.94;;;-143.84;48.25
6032;BME280;3044;43.232;27.972;2023-04-06T08:10:46;45167.13;;;-143.84;47.96
6032;BME280;3044;43.232;27.972;2023-04-06T08:13:14;45159.50;;;-143.84;47.29
6032;BME280;3044;43.232;27.972;2023-04-06T08:15:41;45161.41;;;-143.84;46.46
6032;BME280;3044;43.232;27.972;2023-04-06T08:18:10;45146.19;;;-143.84;46.24
6032;BME280;3044;43.232;27.972;2023-04-06T08:20:37;45150.00;;;-143.84;44.84
6032;BME280;3044;43.232;27.972;2023-04-06T08:23:04;45174.75;;;-143.84;44.22
6032;BME280;3044;43.232;27.972;2023-04-06T08:25:33;45157.59;;;-143.84;44.61
6032;BME280;3044;43.232;27.972;2023-04-06T08:28:00;45167.13;;;-143.84;45.31
6032;BME280;3044;43.232;27.972;2023-04-06T08:30:28;45159.50;;;-143.84;44.17
6032;BME280;3044;43.232;27.972;2023-04-06T08:32:56;45142.38;;;-143.84;44.45
6032;BME280;3044;43.232;27.972;2023-04-06T08:35:25;45174.75;;;-143.84;44.61
6032;BME280;3044;43.232;27.972;2023-04-06T08:37:53;45136.66;;;-143.84;44.88
6032;BME280;3044;43.232;27.972;2023-04-06T08:40:20;45153.81;;;-143.84;44.51
6032;BME280;3044;43.232;27.972;2023-04-06T08:42:52;45163.31;;;-143.84;44.20
6032;BME280;3044;43.232;27.972;2023-04-06T08:45:19;45155.69;;;-143.84;45.01
6032;BME280;3044;43.232;27.972;2023-04-06T08:47:47;45170.94;;;-143.84;44.36
6032;BME280;3044;43.232;27.972;2023-04-06T08:50:16;45140.47;;;-143.84;44.72
6032;BME280;3044;43.232;27.972;2023-04-06T08:52:46;45150.00;;;-143.84;44.76
6032;BME280;3044;43.232;27.972;2023-04-06T08:55:14;45148.09;;;-143.84;45.15
6032;BME280;3044;43.232;27.972;2023-04-06T08:57:42;45180.47;;;-143.84;44.45
6032;BME280;3044;43.232;27.972;2023-04-06T09:00:10;45212.84;;;-143.84;44.17
6032;BME280;3044;43.232;27.972;2023-04-06T09:02:39;45144.28;;;-143.84;43.81
6032;BME280;3044;43.232;27.972;2023-04-06T09:05:08;45161.41;;;-143.84;45.13
6032;BME280;3044;43.232;27.972;2023-04-06T09:07:36;45151.91;;;-143.84;45.12
6032;BME280;3044;43.232;27.972;2023-04-06T09:10:06;45170.94;;;-143.84;45.14
6032;BME280;3044;43.232;27.972;2023-04-06T09:12:34;45170.94;;;-143.84;44.55
6032;BME280;3044;43.232;27.972;2023-04-06T09:15:02;45161.41;;;-143.84;44.96
6032;BME280;3044;43.232;27.972;2023-04-06T09:17:31;45188.06;;;-143.84;44.13
6032;BME280;3044;43.232;27.972;2023-04-06T09:20:00;45172.84;;;-143.84;44.67
6032;BME280;3044;43.232;27.972;2023-04-06T09:22:35;45138.56;;;-143.84;45.26
6032;BME280;3044;43.232;27.972;2023-04-06T09:25:05;45144.28;;;-143.84;45.09
6032;BME280;3044;43.232;27.972;2023-04-06T09:27:34;45172.84;;;-143.84;45.92
6032;BME280;3044;43.232;27.972;2023-04-06T09:30:06;45186.16;;;-143.84;45.79
6032;BME280;3044;43.232;27.972;2023-04-06T09:32:45;45189.97;;;-143.84;45.61
6032;BME280;3044;43.232;27.972;2023-04-06T09:35:13;45159.50;;;-143.84;46.22
6032;BME280;3044;43.232;27.972;2023-04-06T09:37:41;45170.94;;;-143.84;46.57
6032;BME280;3044;43.232;27.972;2023-04-06T09:40:10;45151.91;;;-143.84;46.90
6032;BME280;3044;43.232;27.972;2023-04-06T09:42:40;45189.97;;;-143.84;46.66
6032;BME280;3044;43.232;27.972;2023-04-06T09:45:09;45163.31;;;-143.84;47.09
6032;BME280;3044;43.232;27.972;2023-04-06T09:47:36;45161.41;;;-143.84;47.71
6032;BME280;3044;43.232;27.972;2023-04-06T09:50:07;45184.25;;;-143.84;47.61
6032;BME280;3044;43.232;27.972;2023-04-06T09:52:39;45186.16;;;-143.84;47.88
6032;BME280;3044;43.232;27.972;2023-04-06T09:55:08;45191.88;;;-143.84;48.31
6032;BME280;3044;43.232;27.972;2023-04-06T09:57:45;45140.47;;;-143.84;47.84
6032;BME280;3044;43.232;27.972;2023-04-06T10:00:18;45178.56;;;-143.84;48.07
6032;BME280;3044;43.232;27.972;2023-04-06T10:02:53;45155.69;;;-143.84;48.39
6032;BME280;3044;43.232;27.972;2023-04-06T10:05:29;45172.84;;;-143.84;46.72
6032;BME280;3044;43.232;27.972;2023-04-06T10:08:05;45172.84;;;-143.84;47.77
6032;BME280;3044;43.232;27.972;2023-04-06T10:10:34;45189.97;;;-143.84;46.92
6032;BME280;3044;43.232;27.972;2023-04-06T10:13:02;45161.41;;;-143.84;47.19
6032;BME280;3044;43.232;27.972;2023-04-06T10:15:30;45157.59;;;-143.84;47.17
6032;BME280;3044;43.232;27.972;2023-04-06T10:17:59;45195.69;;;-143.84;47.96
6032;BME280;3044;43.232;27.972;2023-04-06T10:20:31;45178.56;;;-143.84;48.48
6032;BME280;3044;43.232;27.972;2023-04-06T10:23:05;45157.59;;;-143.84;48.06
6032;BME280;3044;43.232;27.972;2023-04-06T10:25:33;45178.56;;;-143.84;48.03
6032;BME280;3044;43.232;27.972;2023-04-06T10:28:05;45144.28;;;-143.84;48.71
6032;BME280;3044;43.232;27.972;2023-04-06T10:30:33;45174.75;;;-143.84;49.08
6032;BME280;3044;43.232;27.972;2023-04-06T10:33:12;45176.66;;;-143.84;48.40
6032;BME280;3044;43.232;27.972;2023-04-06T10:35:40;45150.00;;;-143.84;47.13
6032;BME280;3044;43.232;27.972;2023-04-06T10:38:07;45150.00;;;-143.84;47.25
6032;BME280;3044;43.232;27.972;2023-04-06T10:40:36;45155.69;;;-143.84;47.57
6032;BME280;3044;43.232;27.972;2023-04-06T10:43:09;45159.50;;;-143.84;47.48
6032;BME280;3044;43.232;27.972;2023-04-06T10:45:37;45224.25;;;-143.84;46.86
6032;BME280;3044;43.232;27.972;2023-04-06T10:48:14;45157.59;;;-143.84;47.24
6032;BME280;3044;43.232;27.972;2023-04-06T10:50:44;45153.81;;;-143.84;48.04
6032;BME280;3044;43.232;27.972;2023-04-06T10:53:19;45174.75;;;-143.84;47.80
6032;BME280;3044;43.232;27.972;2023-04-06T10:55:47;45167.13;;;-143.84;47.69
6032;BME280;3044;43.232;27.972;2023-04-06T10:58:17;45169.03;;;-143.84;47.80
6032;BME280;3044;43.232;27.972;2023-04-06T11:00:45;45151.91;;;-143.84;47.38
6032;BME280;3044;43.232;27.972;2023-04-06T11:03:12;45132.84;;;-143.84;46.96
6032;BME280;3044;43.232;27.972;2023-04-06T11:05:43;45151.91;;;-143.84;46.21
6032;BME280;3044;43.232;27.972;2023-04-06T11:08:22;45172.84;;;-143.84;46.03
6032;BME280;3044;43.232;27.972;2023-04-06T11:10:49;45167.13;;;-143.84;46.98
6032;BME280;3044;43.232;27.972;2023-04-06T11:13:18;45167.13;;;-143.84;47.39
6032;BME280;3044;43.232;27.972;2023-04-06T11:15:45;45188.06;;;-143.84;46.41
6032;BME280;3044;43.232;27.972;2023-04-06T11:18:12;45188.06;;;-143.84;46.64
6032;BME280;3044;43.232;27.972;2023-04-06T11:20:40;45180.47;;;-143.84;47.40
6032;BME280;3044;43.232;27.972;2023-04-06T11:23:07;45169.03;;;-143.84;48.34
6032;BME280;3044;43.232;27.972;2023-04-06T11:25:34;45169.03;;;-143.84;48.56
6032;BME280;3044;43.232;27.972;2023-04-06T11:28:02;45157.59;;;-143.84;47.09
6032;BME280;3044;43.232;27.972;2023-04-06T11:30:30;45161.41;;;-143.84;46.48
6032;BME280;3044;43.232;27.972;2023-04-06T11:33:01;45151.91;;;-143.84;45.52
6032;BME280;3044;43.232;27.972;2023-04-06T11:35:31;45170.94;;;-143.84;46.03
6032;BME280;3044;43.232;27.972;2023-04-06T11:38:02;45167.13;;;-143.84;46.30
6032;BME280;3044;43.232;27.972;2023-04-06T11:40:30;45153.81;;;-143.84;45.68
6032;BME280;3044;43.232;27.972;2023-04-06T11:42:58;45134.75;;;-143.84;45.64
6032;BME280;3044;43.232;27.972;2023-04-06T11:45:25;45146.19;;;-143.84;44.41
6032;BME280;3044;43.232;27.972;2023-04-06T11:47:59;45151.91;;;-143.84;45.01
6032;BME280;3044;43.232;27.972;2023-04-06T11:50:32;45148.09;;;-143.84;45.41
6032;BME280;3044;43.232;27.972;2023-04-06T11:53:00;45148.09;;;-143.84;45.00
6032;BME280;3044;43.232;27.972;2023-04-06T11:55:28;45129.03;;;-143.84;44.04
6032;BME280;3044;43.232;27.972;2023-04-06T11:57:55;45161.41;;;-143.84;44.84
6032;BME280;3044;43.232;27.972;2023-04-06T12:00:22;45151.91;;;-143.84;44.24
6032;BME280;3044;43.232;27.972;2023-04-06T12:02:50;45144.28;;;-143.84;44.88
6032;BME280;3044;43.232;27.972;2023-04-06T12:05:19;45159.50;;;-143.84;44.67
6032;BME280;3044;43.232;27.972;2023-04-06T12:07:46;45140.47;;;-143.84;44.87
6032;BME280;3044;43.232;27.972;2023-04-06T12:10:13;45178.56;;;-143.84;44.05
6032;BME280;3044;43.232;27.972;2023-04-06T12:12:40;45159.50;;;-143.84;44.96
6032;BME280;3044;43.232;27.972;2023-04-06T12:15:08;45155.69;;;-143.84;44.85
6032;BME280;3044;43.232;27.972;2023-04-06T12:17:35;45157.59;;;-143.84;44.36
6032;BME280;3044;43.232;27.972;2023-04-06T12:20:03;45144.28;;;-143.84;47.03
6032;BME280;3044;43.232;27.972;2023-04-06T12:22:32;45142.38;;;-143.84;51.10
6032;BME280;3044;43.232;27.972;2023-04-06T12:24:59;45174.75;;;-143.84;44.67
6032;BME280;3044;43.232;27.972;2023-04-06T12:27:26;45186.16;;;-143.84;45.27
6032;BME280;3044;43.232;27.972;2023-04-06T12:29:53;45161.41;;;-143.84;56.20
6032;BME280;3044;43.232;27.972;2023-04-06T12:32:21;45153.81;;;-143.84;58.18
6032;BME280;3044;43.232;27.972;2023-04-06T12:34:48;45159.50;;;-143.84;58.32
6032;BME280;3044;43.232;27.972;2023-04-06T12:37:15;45155.69;;;-143.84;60.71
6032;BME280;3044;43.232;27.972;2023-04-06T12:39:44;45148.09;;;-143.84;61.55
6032;BME280;3044;43.232;27.972;2023-04-06T12:42:12;45172.84;;;-143.84;64.04
6032;BME280;3044;43.232;27.972;2023-04-06T12:44:39;45167.13;;;-143.84;65.06
6032;BME280;3044;43.232;27.972;2023-04-06T12:47:08;45170.94;;;-143.84;62.24
6032;BME280;3044;43.232;27.972;2023-04-06T12:49:37;45197.59;;;-143.84;63.69
6032;BME280;3044;43.232;27.972;2023-04-06T12:52:05;45167.13;;;-143.84;63.35
6032;BME280;3044;43.232;27.972;2023-04-06T12:54:32;45144.28;;;-143.84;64.62